createdAt,value
2022-12-13T00:01:16.562Z,99479.06
2022-12-13T00:06:38.340Z,99484.97
2022-12-13T00:12:00.177Z,99489.19
2022-12-13T00:17:22.311Z,99491.72
2022-12-13T00:22:44.242Z,99484.97
2022-12-13T00:28:06.106Z,99495.09
2022-12-13T00:33:28.531Z,99503.53
2022-12-13T00:38:50.505Z,99512.81
2022-12-13T00:44:13.645Z,99519.56
2022-12-13T00:49:35.467Z,99522.91
2022-12-13T00:54:57.278Z,99500.94
2022-12-13T01:00:19.900Z,99524.59
2022-12-13T01:06:13.729Z,99527.97
2022-12-13T01:11:23.605Z,99532.19
2022-12-13T01:16:45.540Z,99530.47
2022-12-13T01:22:07.907Z,99534.63
2022-12-13T01:27:29.852Z,99538.84
2022-12-13T01:32:51.743Z,99539.69
2022-12-13T01:38:15.702Z,99544.75
2022-12-13T01:44:18.410Z,99550.63
2022-12-13T01:49:40.217Z,99538.84
2022-12-13T01:55:04.670Z,99555.84
2022-12-13T02:00:27.234Z,99561.75
2022-12-13T02:05:54.900Z,99569.41
2022-12-13T02:11:17.362Z,99560.91
2022-12-13T02:17:05.575Z,99565.16
2022-12-13T02:23:07.347Z,99567.78
2022-12-13T02:28:35.269Z,99564.34
2022-12-13T02:34:10.671Z,99565.25
2022-12-13T02:39:36.618Z,99561.03
2022-12-13T02:45:17.228Z,99570.34
2022-12-13T02:50:43.209Z,99573.69
2022-12-13T02:56:05.360Z,99582.16
2022-12-13T03:01:40.449Z,99582.19
2022-12-13T03:07:16.064Z,99580.47
2022-12-13T03:12:45.690Z,99582.16
2022-12-13T03:18:13.069Z,99574.56
2022-12-13T03:23:35.840Z,99583.88
2022-12-13T03:28:57.682Z,99588.09
2022-12-13T03:34:22.827Z,99589.78
2022-12-13T03:39:45.118Z,99584.72
2022-12-13T03:45:07.462Z,99584.72
2022-12-13T03:50:29.322Z,99583.94
2022-12-13T03:55:51.163Z,99575.44
2022-12-13T04:01:16.495Z,99582.19
2022-12-13T04:06:38.318Z,99581.38
2022-12-13T04:12:00.225Z,99596.59
2022-12-13T04:17:22.026Z,99592.38
2022-12-13T04:22:43.864Z,99601.63
2022-12-13T04:28:06.936Z,99605.91
2022-12-13T04:33:28.815Z,99612.59
2022-12-13T04:38:50.707Z,99603.31
2022-12-13T04:44:28.839Z,99609.19
2022-12-13T04:49:51.717Z,99627.81
2022-12-13T04:55:13.945Z,99629.50
2022-12-13T05:00:36.063Z,99640.53
2022-12-13T05:05:57.972Z,99632.94
2022-12-13T05:11:19.759Z,99634.56
2022-12-13T05:16:45.047Z,99639.66
2022-12-13T05:22:09.041Z,99637.06
2022-12-13T05:27:30.924Z,99642.09
2022-12-13T05:32:52.735Z,99656.44
2022-12-13T05:38:14.851Z,99653.97
2022-12-13T05:43:42.940Z,99663.22
2022-12-13T05:49:05.436Z,99668.25
2022-12-13T05:54:27.396Z,99664.88
2022-12-13T05:59:49.202Z,99671.69
2022-12-13T06:05:11.602Z,99678.38
2022-12-13T06:10:34.166Z,99678.34
2022-12-13T06:16:02.307Z,99700.19
2022-12-13T06:21:24.129Z,99713.88
2022-12-13T06:26:46.463Z,99716.28
2022-12-13T06:32:08.422Z,99710.28
2022-12-13T06:37:30.268Z,99725.47
2022-12-13T06:42:52.085Z,99725.44
2022-12-13T06:48:17.507Z,99731.41
2022-12-13T06:53:42.202Z,99738.84
2022-12-13T06:59:04.079Z,99735.53
2022-12-13T07:04:30.068Z,99764.97
2022-12-13T07:09:53.448Z,99763.31
2022-12-13T07:15:15.321Z,99770.94
2022-12-13T07:20:39.851Z,99777.66
2022-12-13T07:26:01.678Z,99785.22
2022-12-13T07:31:24.777Z,99792.13
2022-12-13T07:36:46.657Z,99798.00
2022-12-13T07:42:08.497Z,99797.19
2022-12-13T07:47:31.608Z,99799.66
2022-12-13T07:52:53.610Z,99811.63
2022-12-13T07:58:15.726Z,99815.09
2022-12-13T08:03:38.240Z,99826.06
2022-12-13T08:09:00.109Z,99833.69
2022-12-13T08:14:21.968Z,99837.78
2022-12-13T08:19:43.782Z,99840.31
2022-12-13T08:25:06.860Z,99842.84
2022-12-13T08:30:28.705Z,99854.59
2022-12-13T08:35:50.525Z,99849.69
2022-12-13T08:41:13.247Z,99851.34
2022-12-13T08:46:35.082Z,99868.94
2022-12-13T08:51:57.024Z,99864.84
2022-12-13T08:57:19.374Z,99877.69
2022-12-13T09:02:41.276Z,99878.56
2022-12-13T09:08:04.151Z,99878.53
2022-12-13T09:13:31.792Z,99885.28
2022-12-13T09:18:55.443Z,99874.47
2022-12-13T09:24:23.965Z,99888.88
2022-12-13T09:29:46.764Z,99885.47
2022-12-13T09:35:09.243Z,99892.34
2022-12-13T09:40:37.648Z,99886.34
2022-12-13T09:46:13.221Z,99899.16
2022-12-13T09:52:04.293Z,99903.53
2022-12-13T09:57:34.426Z,99904.09
2022-12-13T10:02:58.657Z,99911.63
2022-12-13T10:08:30.517Z,99899.03
2022-12-13T10:13:58.348Z,99904.94
2022-12-13T10:19:32.922Z,99909.06
2022-12-13T10:24:58.880Z,99906.50
2022-12-13T10:30:27.750Z,99911.78
2022-12-13T10:36:07.516Z,99899.22
2022-12-13T10:41:38.197Z,99886.69
2022-12-13T10:47:12.508Z,99902.97
2022-12-13T10:52:47.201Z,99897.59
2022-12-13T10:58:19.385Z,99893.44
2022-12-13T11:03:41.225Z,99891.84
2022-12-13T11:09:24.566Z,99896.88
2022-12-13T11:15:01.552Z,99889.28
2022-12-13T11:20:32.943Z,99887.78
2022-12-13T11:26:08.273Z,99886.69
2022-12-13T11:31:51.975Z,99903.63
2022-12-13T11:37:26.231Z,99905.97
2022-12-13T11:42:53.619Z,99900.06
2022-12-13T11:48:37.245Z,99906.34
2022-12-13T11:54:04.694Z,99902.19
2022-12-13T11:59:49.920Z,99908.78
2022-12-13T12:05:24.275Z,99896.00
2022-12-13T12:10:50.270Z,99917.28
2022-12-13T12:16:28.428Z,99926.66
2022-12-13T12:22:17.911Z,99919.00
2022-12-13T12:27:55.085Z,99912.94
2022-12-13T12:33:43.687Z,99935.03
2022-12-13T12:39:27.050Z,99935.91
2022-12-13T12:44:48.946Z,99941.50
2022-12-13T12:50:31.796Z,99953.28
2022-12-13T12:55:59.716Z,99963.16
2022-12-13T13:01:49.166Z,99966.59
2022-12-13T13:07:23.461Z,99959.84
2022-12-13T13:12:46.042Z,99963.03
2022-12-13T13:18:42.956Z,99973.91
2022-12-13T13:24:14.430Z,99977.22
2022-12-13T13:29:43.883Z,99984.75
2022-12-13T13:35:30.711Z,99993.22
2022-12-13T13:40:52.628Z,99991.72
2022-12-13T13:46:14.553Z,99987.44
2022-12-13T13:52:27.274Z,100003.25
2022-12-13T13:58:24.998Z,99993.88
2022-12-13T14:04:41.206Z,100001.50
2022-12-13T14:10:31.220Z,100013.28
2022-12-13T14:16:12.298Z,100002.88
2022-12-13T14:21:49.640Z,100024.56
2022-12-13T14:27:31.667Z,100033.75
2022-12-13T14:32:53.677Z,100034.31
2022-12-13T14:38:24.606Z,100025.44
2022-12-13T14:43:50.049Z,100028.72
2022-12-13T14:49:12.742Z,100033.94
2022-12-13T14:54:58.219Z,100027.91
2022-12-13T15:00:43.904Z,100040.78
2022-12-13T15:06:05.998Z,100030.63
2022-12-13T15:11:27.853Z,100043.25
2022-12-13T15:16:52.391Z,100044.03
2022-12-13T15:22:15.491Z,100043.06
2022-12-13T15:27:38.998Z,100041.47
2022-12-13T15:33:16.022Z,100049.03
2022-12-13T15:38:43.884Z,100051.88
2022-12-13T15:44:27.695Z,100050.66
2022-12-13T15:49:55.033Z,100065.22
2022-12-13T15:55:19.507Z,100069.72
2022-12-13T16:00:48.533Z,100053.53
2022-12-13T16:06:17.678Z,100062.06
2022-12-13T16:11:49.794Z,100066.97
2022-12-13T16:17:28.980Z,100059.44
2022-12-13T16:22:50.753Z,100060.31
2022-12-13T16:28:14.755Z,100067.88
2022-12-13T16:33:36.767Z,100084.00
2022-12-13T16:38:58.953Z,100071.09
2022-12-13T16:44:36.376Z,100077.72
2022-12-13T16:50:03.136Z,100078.41
2022-12-13T16:55:25.136Z,100073.50
2022-12-13T17:00:47.029Z,100086.09
2022-12-13T17:06:10.872Z,100087.50
2022-12-13T17:11:33.967Z,100096.25
2022-12-13T17:16:55.951Z,100100.44
2022-12-13T17:22:17.887Z,100100.66
2022-12-13T17:27:40.618Z,100097.25
2022-12-13T17:33:03.358Z,100110.88
2022-12-13T17:38:25.459Z,100099.53
2022-12-13T17:43:47.544Z,100108.03
2022-12-13T17:49:10.951Z,100112.34
2022-12-13T17:54:32.816Z,100115.59
2022-12-13T17:59:54.643Z,100116.25
2022-12-13T18:05:18.186Z,100104.66
2022-12-13T18:10:40.161Z,100122.22
2022-12-13T18:16:06.444Z,100122.31
2022-12-13T18:21:28.351Z,100127.44
2022-12-13T18:26:50.178Z,100126.72
2022-12-13T18:32:12.072Z,100130.81
2022-12-13T18:37:33.888Z,100135.19
2022-12-13T18:42:55.678Z,100136.22
2022-12-13T18:48:17.477Z,100144.69
2022-12-13T18:53:39.331Z,100146.50
2022-12-13T18:59:01.164Z,100152.25
2022-12-13T19:04:23.156Z,100154.78
2022-12-13T19:09:54.482Z,100160.44
2022-12-13T19:15:16.979Z,100150.94
2022-12-13T19:20:38.826Z,100175.69
2022-12-13T19:26:12.711Z,100152.50
2022-12-13T19:31:34.667Z,100162.84
2022-12-13T19:36:58.270Z,100179.56
2022-12-13T19:42:23.493Z,100167.00
2022-12-13T19:47:46.680Z,100174.47
2022-12-13T19:53:11.558Z,100176.25
2022-12-13T19:58:33.392Z,100177.81
2022-12-13T20:03:55.523Z,100183.91
2022-12-13T20:09:17.537Z,100176.34
2022-12-13T20:14:40.153Z,100182.41
2022-12-13T20:20:02.259Z,100185.66
2022-12-13T20:25:24.133Z,100194.97
2022-12-13T20:30:47.066Z,100199.00
2022-12-13T20:36:24.001Z,100199.94
2022-12-13T20:41:46.387Z,100198.84
2022-12-13T20:47:08.335Z,100201.34
2022-12-13T20:52:30.396Z,100192.06
2022-12-13T20:57:52.351Z,100209.09
2022-12-13T21:03:14.292Z,100212.94
2022-12-13T21:08:36.119Z,100219.25
2022-12-13T21:14:20.943Z,100224.78
2022-12-13T21:19:43.773Z,100224.00
2022-12-13T21:25:10.768Z,100220.75
2022-12-13T21:30:32.633Z,100232.16
2022-12-13T21:35:54.856Z,100232.97
2022-12-13T21:41:16.690Z,100233.41
2022-12-13T21:47:10.870Z,100229.59
2022-12-13T21:52:20.507Z,100242.97
2022-12-13T21:57:42.317Z,100233.50
2022-12-13T22:03:04.417Z,100227.34
2022-12-13T22:08:26.665Z,100236.38
2022-12-13T22:13:48.781Z,100237.91
2022-12-13T22:19:13.079Z,100247.66
2022-12-13T22:24:34.928Z,100249.03
2022-12-13T22:29:57.823Z,100246.44
2022-12-13T22:35:20.365Z,100232.34
2022-12-13T22:40:42.235Z,100237.19
2022-12-13T22:46:05.772Z,100240.34
2022-12-13T22:51:27.671Z,100240.94
2022-12-13T22:56:50.135Z,100235.81
2022-12-13T23:02:12.108Z,100237.25
2022-12-13T23:07:36.415Z,100235.56
2022-12-13T23:12:58.337Z,100225.25
2022-12-13T23:18:20.259Z,100228.41
2022-12-13T23:23:42.137Z,100233.31
2022-12-13T23:29:07.924Z,100234.91
2022-12-13T23:34:29.709Z,100229.72
2022-12-13T23:39:51.505Z,100231.44
2022-12-13T23:45:13.435Z,100233.84
2022-12-13T23:50:35.305Z,100237.22
2022-12-13T23:55:58.046Z,100248.09
